Time;durP1;ratioP1;P1;durP2;ratioP2;P2;SDS_P1;SDS_P2;PMS_P1;PMS_P2;Temp;Humidity;BMP_temperature;BMP_pressure;BME280_temperature;BME280_humidity;BME280_pressure;Samples;Min_cycle;Max_cycle;Signal;HPM_P1;HPM_P2
2023/04/22 00:02:40;;;;;;;15.68;8.27;;;;;;;;;;6381098;22;20018;-79
2023/04/22 00:05:25;;;;;;;16.52;8.32;;;;;;;;;;6381056;22;20018;-77
2023/04/22 00:08:11;;;;;;;17.52;8.65;;;;;;;;;;6381139;22;20443;-77
2023/04/22 00:10:57;;;;;;;15.90;8.63;;;;;;;;;;6357819;22;20019;-79
2023/04/22 00:13:43;;;;;;;15.85;8.80;;;;;;;;;;6381456;22;20014;-78
2023/04/22 00:16:31;;;;;;;17.70;8.93;;;;;;;;;;6381252;22;20014;-78
2023/04/22 00:19:21;;;;;;;14.63;8.90;;;;;;;;;;6358364;22;20022;-80
2023/04/22 00:22:07;;;;;;;12.55;8.90;;;;;;;;;;6383025;22;20022;-78
2023/04/22 00:24:52;;;;;;;17.63;8.88;;;;;;;;;;6383067;22;20014;-78
2023/04/22 00:27:38;;;;;;;15.18;8.98;;;;;;;;;;6382923;22;20022;-78
2023/04/22 00:30:23;;;;;;;12.93;8.95;;;;;;;;;;6383059;22;20015;-78
2023/04/22 00:33:09;;;;;;;24.50;9.98;;;;;;;;;;6372311;22;20015;-79
2023/04/22 00:35:54;;;;;;;18.67;9.95;;;;;;;;;;6383051;22;20014;-78
2023/04/22 00:38:47;;;;;;;22.58;11.30;;;;;;;;;;6382708;22;20010;-78
2023/04/22 00:41:32;;;;;;;21.83;12.38;;;;;;;;;;6382993;22;20018;-79
2023/04/22 00:44:17;;;;;;;20.48;11.02;;;;;;;;;;6337388;22;20010;-80
2023/04/22 00:47:03;;;;;;;19.70;10.27;;;;;;;;;;6359502;22;20018;-78
2023/04/22 00:49:49;;;;;;;21.73;11.05;;;;;;;;;;6382902;22;20440;-78
2023/04/22 00:52:34;;;;;;;26.75;11.93;;;;;;;;;;6382663;22;20018;-80
2023/04/22 00:55:20;;;;;;;19.85;11.48;;;;;;;;;;6359316;22;20018;-80
2023/04/22 00:58:06;;;;;;;23.23;10.88;;;;;;;;;;6382732;22;20014;-80
2023/04/22 01:00:52;;;;;;;16.58;10.32;;;;;;;;;;6382860;22;20018;-79
2023/04/22 01:03:39;;;;;;;15.32;9.45;;;;;;;;;;6382943;22;20018;-79
2023/04/22 01:06:27;;;;;;;17.73;7.88;;;;;;;;;;6382638;22;20443;-78
2023/04/22 01:09:12;;;;;;;15.15;7.80;;;;;;;;;;6382497;22;20019;-79
2023/04/22 01:11:58;;;;;;;15.70;6.85;;;;;;;;;;6382507;22;20018;-77
2023/04/22 01:14:44;;;;;;;11.27;7.45;;;;;;;;;;6382795;22;20019;-77
2023/04/22 01:17:30;;;;;;;13.23;6.88;;;;;;;;;;6382831;22;20010;-80
2023/04/22 01:20:16;;;;;;;15.77;6.88;;;;;;;;;;6359150;22;20010;-78
2023/04/22 01:23:03;;;;;;;15.20;7.28;;;;;;;;;;6382833;22;20018;-77
2023/04/22 01:25:48;;;;;;;19.08;7.53;;;;;;;;;;6382718;22;20444;-80
2023/04/22 01:28:34;;;;;;;17.95;7.60;;;;;;;;;;6382383;22;20022;-80
2023/04/22 01:31:19;;;;;;;14.38;6.68;;;;;;;;;;6358400;22;20018;-78
2023/04/22 01:34:05;;;;;;;18.48;6.75;;;;;;;;;;6382354;22;20018;-79
2023/04/22 01:36:50;;;;;;;17.13;7.40;;;;;;;;;;6382514;22;20018;-77
2023/04/22 01:39:36;;;;;;;10.80;6.88;;;;;;;;;;6382290;22;20015;-79
2023/04/22 01:42:22;;;;;;;12.32;6.95;;;;;;;;;;6382390;22;20018;-78
2023/04/22 01:45:08;;;;;;;13.38;7.22;;;;;;;;;;6358895;22;20010;-79
2023/04/22 01:47:53;;;;;;;15.00;7.75;;;;;;;;;;6382231;22;20018;-79
2023/04/22 01:50:38;;;;;;;14.35;7.15;;;;;;;;;;6382323;22;20436;-79
2023/04/22 01:53:24;;;;;;;21.33;8.32;;;;;;;;;;6382196;22;20018;-79
2023/04/22 01:56:10;;;;;;;36.28;14.88;;;;;;;;;;6358564;22;20022;-77
2023/04/22 01:58:56;;;;;;;21.23;11.30;;;;;;;;;;6358880;22;20022;-76
2023/04/22 02:01:42;;;;;;;25.63;11.43;;;;;;;;;;6382092;22;20014;-79
2023/04/22 02:04:27;;;;;;;36.63;14.65;;;;;;;;;;6382392;22;20018;-76
2023/04/22 02:07:13;;;;;;;33.83;15.63;;;;;;;;;;6382445;22;20340;-77
2023/04/22 02:10:00;;;;;;;38.92;16.25;;;;;;;;;;6358681;22;20019;-78
2023/04/22 02:12:45;;;;;;;41.00;15.65;;;;;;;;;;6382025;22;20018;-79
2023/04/22 02:15:32;;;;;;;34.92;16.77;;;;;;;;;;6358626;22;20015;-77
2023/04/22 02:18:18;;;;;;;44.80;15.57;;;;;;;;;;6382190;22;20014;-77
2023/04/22 02:21:04;;;;;;;37.55;14.60;;;;;;;;;;6382671;22;20412;-79
2023/04/22 02:23:49;;;;;;;25.92;11.80;;;;;;;;;;6336487;22;20018;-79
2023/04/22 02:26:35;;;;;;;23.17;10.40;;;;;;;;;;6382649;22;20018;-79
2023/04/22 02:29:20;;;;;;;26.92;11.20;;;;;;;;;;6358139;22;20022;-80
2023/04/22 02:32:05;;;;;;;24.58;11.38;;;;;;;;;;6375979;22;20011;-80
2023/04/22 02:34:51;;;;;;;24.40;11.75;;;;;;;;;;6358267;22;20018;-80
2023/04/22 02:37:38;;;;;;;27.25;11.18;;;;;;;;;;6357755;22;20014;-80
2023/04/22 02:40:24;;;;;;;22.42;10.93;;;;;;;;;;6381868;22;20018;-78
2023/04/22 02:43:09;;;;;;;21.40;11.60;;;;;;;;;;6357698;22;20019;-78
2023/04/22 02:45:55;;;;;;;21.70;10.40;;;;;;;;;;6357952;22;20018;-80
2023/04/22 02:48:41;;;;;;;26.77;11.68;;;;;;;;;;6358404;22;20026;-79
2023/04/22 02:51:27;;;;;;;27.67;15.05;;;;;;;;;;6381452;22;20435;-78
2023/04/22 02:54:13;;;;;;;25.75;13.60;;;;;;;;;;6358643;22;20018;-80
2023/04/22 02:56:58;;;;;;;25.60;12.73;;;;;;;;;;6357885;22;20354;-80
2023/04/22 02:59:45;;;;;;;20.55;10.18;;;;;;;;;;6358773;22;20014;-80
2023/04/22 03:02:33;;;;;;;17.85;9.82;;;;;;;;;;6358542;22;20014;-78
2023/04/22 03:05:28;;;;;;;22.20;10.32;;;;;;;;;;6358065;22;20018;-78
2023/04/22 03:08:14;;;;;;;26.63;10.98;;;;;;;;;;6336283;22;20022;-80
2023/04/22 03:10:59;;;;;;;20.42;10.82;;;;;;;;;;6381726;22;20018;-80
2023/04/22 03:13:45;;;;;;;20.58;10.38;;;;;;;;;;6358034;22;20015;-78
2023/04/22 03:16:30;;;;;;;16.83;10.05;;;;;;;;;;6358198;22;20018;-78
2023/04/22 03:19:18;;;;;;;22.98;10.18;;;;;;;;;;6357629;22;20014;-80
2023/04/22 03:22:03;;;;;;;17.27;8.13;;;;;;;;;;6381625;22;20014;-78
2023/04/22 03:24:49;;;;;;;15.68;8.50;;;;;;;;;;6357798;22;20339;-80
2023/04/22 03:27:35;;;;;;;15.32;7.82;;;;;;;;;;6357661;22;20432;-80
2023/04/22 03:30:20;;;;;;;12.68;7.55;;;;;;;;;;6381141;22;20022;-81
2023/04/22 03:33:06;;;;;;;16.35;8.13;;;;;;;;;;6357521;22;20019;-79
2023/04/22 03:35:58;;;;;;;18.85;7.95;;;;;;;;;;6381275;22;20011;-80
2023/04/22 03:38:44;;;;;;;14.48;8.30;;;;;;;;;;6357741;22;20018;-81
2023/04/22 03:41:31;;;;;;;16.73;8.82;;;;;;;;;;6358097;22;20018;-79
2023/04/22 03:44:16;;;;;;;17.90;8.05;;;;;;;;;;6357698;22;20018;-81
2023/04/22 03:47:03;;;;;;;19.02;8.57;;;;;;;;;;6357751;22;20432;-78
2023/04/22 03:49:53;;;;;;;18.42;8.80;;;;;;;;;;6358303;22;20010;-81
2023/04/22 03:52:39;;;;;;;23.58;8.90;;;;;;;;;;6381028;22;20010;-79
2023/04/22 03:55:25;;;;;;;15.77;8.80;;;;;;;;;;6337391;22;20018;-81
2023/04/22 03:58:12;;;;;;;19.17;8.98;;;;;;;;;;6359817;22;20014;-79
2023/04/22 04:00:58;;;;;;;27.30;9.05;;;;;;;;;;6383141;22;20018;-81
2023/04/22 04:03:43;;;;;;;18.88;8.82;;;;;;;;;;6359840;22;20018;-80
2023/04/22 04:06:30;;;;;;;20.20;9.35;;;;;;;;;;6359603;22;20019;-81
2023/04/22 04:09:16;;;;;;;17.60;9.43;;;;;;;;;;6360180;22;20335;-79
2023/04/22 04:12:02;;;;;;;31.13;13.02;;;;;;;;;;6359894;22;20011;-79
2023/04/22 04:14:52;;;;;;;20.00;10.98;;;;;;;;;;6359678;22;20018;-79
2023/04/22 04:17:38;;;;;;;19.35;10.95;;;;;;;;;;6338082;22;20335;-79
2023/04/22 04:20:24;;;;;;;21.42;10.75;;;;;;;;;;6360213;22;20018;-79
2023/04/22 04:23:09;;;;;;;24.80;10.73;;;;;;;;;;6359604;22;20019;-80
2023/04/22 04:25:55;;;;;;;24.00;11.48;;;;;;;;;;6359991;22;20331;-80
2023/04/22 04:28:41;;;;;;;107.53;41.70;;;;;;;;;;6359628;22;20432;-79
2023/04/22 04:31:30;;;;;;;56.95;25.17;;;;;;;;;;6359481;22;20435;-80
2023/04/22 04:34:17;;;;;;;50.63;19.73;;;;;;;;;;6359580;22;20018;-80
2023/04/22 04:37:04;;;;;;;30.92;15.57;;;;;;;;;;6359703;22;20014;-80
2023/04/22 04:40:00;;;;;;;29.70;12.00;;;;;;;;;;6339932;22;20018;-80
2023/04/22 04:43:01;;;;;;;19.00;9.38;;;;;;;;;;6359356;22;20428;-80
2023/04/22 04:45:51;;;;;;;19.70;9.30;;;;;;;;;;6359069;22;20351;-79
2023/04/22 04:48:45;;;;;;;29.40;14.95;;;;;;;;;;6359293;22;20339;-77
2023/04/22 04:51:32;;;;;;;34.42;16.25;;;;;;;;;;6359366;22;20014;-77
2023/04/22 04:54:18;;;;;;;30.55;16.35;;;;;;;;;;6359137;22;20014;-79
2023/04/22 04:57:05;;;;;;;32.55;17.42;;;;;;;;;;6359270;22;20018;-78
2023/04/22 04:59:51;;;;;;;31.40;16.23;;;;;;;;;;6359167;22;20018;-79
2023/04/22 05:02:36;;;;;;;37.40;16.33;;;;;;;;;;6359897;22;20018;-79
2023/04/22 05:05:22;;;;;;;30.58;18.02;;;;;;;;;;6382333;22;20018;-79
2023/04/22 05:08:08;;;;;;;36.97;18.30;;;;;;;;;;6382720;22;20018;-79
2023/04/22 05:10:55;;;;;;;38.92;18.15;;;;;;;;;;6358853;22;20022;-79
2023/04/22 05:13:40;;;;;;;41.22;21.23;;;;;;;;;;6359411;22;20436;-78
2023/04/22 05:16:29;;;;;;;65.70;30.70;;;;;;;;;;6358155;22;20014;-78
2023/04/22 05:19:16;;;;;;;33.55;17.00;;;;;;;;;;6359452;22;20018;-80
2023/04/22 05:22:01;;;;;;;26.33;13.68;;;;;;;;;;6337096;22;20419;-80
2023/04/22 05:24:48;;;;;;;20.13;10.90;;;;;;;;;;6358269;22;20018;-78
2023/04/22 05:27:34;;;;;;;18.02;10.57;;;;;;;;;;6358699;22;20014;-78
2023/04/22 05:30:22;;;;;;;21.10;12.65;;;;;;;;;;6358828;22;20018;-78
2023/04/22 05:33:08;;;;;;;20.27;11.18;;;;;;;;;;6358600;22;20018;-80
2023/04/22 05:35:54;;;;;;;20.42;11.15;;;;;;;;;;6356523;22;20018;-77
2023/04/22 05:38:39;;;;;;;23.92;11.45;;;;;;;;;;6355779;22;20014;-81
2023/04/22 05:41:25;;;;;;;26.80;11.85;;;;;;;;;;6357955;22;20015;-77
2023/04/22 05:44:11;;;;;;;25.92;10.88;;;;;;;;;;6356873;22;20340;-80
2023/04/22 05:46:56;;;;;;;27.60;11.07;;;;;;;;;;6381552;22;20014;-77
2023/04/22 05:49:44;;;;;;;22.30;10.90;;;;;;;;;;6357846;22;20022;-81
2023/04/22 05:52:34;;;;;;;24.77;10.43;;;;;;;;;;6357277;22;20014;-78
2023/04/22 05:55:24;;;;;;;28.40;11.25;;;;;;;;;;6359057;22;20431;-81
2023/04/22 05:58:11;;;;;;;22.63;11.20;;;;;;;;;;6359181;22;20033;-78
2023/04/22 06:01:08;;;;;;;20.77;11.35;;;;;;;;;;6358357;22;20018;-78
2023/04/22 06:04:08;;;;;;;23.58;11.90;;;;;;;;;;6358617;22;20015;-78
2023/04/22 06:06:54;;;;;;;27.92;11.77;;;;;;;;;;6357345;22;20018;-81
2023/04/22 06:09:39;;;;;;;28.33;11.57;;;;;;;;;;6358465;22;20022;-81
2023/04/22 06:12:26;;;;;;;21.40;9.20;;;;;;;;;;6358351;22;20014;-77
2023/04/22 06:15:11;;;;;;;24.42;10.15;;;;;;;;;;6358259;22;20022;-81
2023/04/22 06:17:57;;;;;;;22.05;10.32;;;;;;;;;;6358318;22;20018;-77
2023/04/22 06:20:43;;;;;;;23.10;10.40;;;;;;;;;;6380537;22;20067;-81
2023/04/22 06:23:28;;;;;;;21.75;10.30;;;;;;;;;;6357606;22;20332;-80
2023/04/22 06:26:14;;;;;;;28.85;9.10;;;;;;;;;;6358298;22;20014;-78
2023/04/22 06:29:01;;;;;;;20.58;8.90;;;;;;;;;;6358192;22;20018;-80
2023/04/22 06:31:47;;;;;;;19.33;8.60;;;;;;;;;;6377253;22;20019;-78
2023/04/22 06:34:33;;;;;;;20.92;8.70;;;;;;;;;;6358233;22;20019;-81
2023/04/22 06:37:19;;;;;;;23.95;8.63;;;;;;;;;;6358401;22;20018;-81
2023/04/22 06:40:06;;;;;;;15.50;6.38;;;;;;;;;;6358383;22;20014;-80
2023/04/22 06:43:26;;;;;;;16.27;6.35;;;;;;;;;;6254875;23;20016;-80
2023/04/22 06:46:23;;;;;;;19.77;8.07;;;;;;;;;;6381342;22;20447;-77
2023/04/22 06:49:46;;;;;;;15.23;7.60;;;;;;;;;;6356002;22;20433;-80
2023/04/22 06:52:48;;;;;;;15.98;7.60;;;;;;;;;;6358001;22;20014;-78
2023/04/22 06:55:34;;;;;;;19.50;8.32;;;;;;;;;;6357748;22;20014;-78
2023/04/22 06:58:20;;;;;;;17.00;8.00;;;;;;;;;;6358323;22;20018;-80
2023/04/22 07:01:07;;;;;;;19.23;8.57;;;;;;;;;;6358790;22;20010;-78
2023/04/22 07:03:52;;;;;;;22.63;8.15;;;;;;;;;;6357916;22;20069;-77
2023/04/22 07:06:38;;;;;;;18.60;8.57;;;;;;;;;;6357540;22;20440;-80
2023/04/22 07:09:25;;;;;;;18.05;8.63;;;;;;;;;;6357889;22;20014;-80
2023/04/22 07:12:11;;;;;;;17.20;8.48;;;;;;;;;;6357190;22;20014;-80
2023/04/22 07:14:56;;;;;;;20.73;9.18;;;;;;;;;;6380778;22;20010;-80
2023/04/22 07:17:42;;;;;;;19.92;8.82;;;;;;;;;;6380590;22;20014;-80
2023/04/22 07:20:27;;;;;;;18.75;8.32;;;;;;;;;;6380080;22;20440;-79
2023/04/22 07:23:13;;;;;;;16.35;8.20;;;;;;;;;;6381206;22;20018;-77
2023/04/22 07:25:59;;;;;;;18.67;9.00;;;;;;;;;;6381264;22;20019;-80
2023/04/22 07:28:45;;;;;;;19.08;8.77;;;;;;;;;;6379857;22;20018;-80
2023/04/22 07:31:30;;;;;;;21.80;9.35;;;;;;;;;;6377439;22;20014;-79
2023/04/22 07:34:17;;;;;;;16.50;9.25;;;;;;;;;;6381191;22;20332;-79
2023/04/22 07:37:03;;;;;;;20.77;8.20;;;;;;;;;;6357969;22;20018;-77
2023/04/22 07:39:49;;;;;;;24.20;9.38;;;;;;;;;;6381483;22;20014;-80
2023/04/22 07:42:37;;;;;;;18.75;9.18;;;;;;;;;;6381443;22;20015;-77
2023/04/22 07:45:22;;;;;;;26.20;9.40;;;;;;;;;;6380792;22;20443;-81
2023/04/22 07:48:07;;;;;;;22.88;9.73;;;;;;;;;;6381052;22;20015;-78
2023/04/22 07:50:53;;;;;;;22.65;9.27;;;;;;;;;;6380941;22;20018;-78
2023/04/22 07:53:39;;;;;;;19.08;8.73;;;;;;;;;;6381277;22;20398;-80
2023/04/22 07:56:25;;;;;;;16.77;8.82;;;;;;;;;;6380568;22;20371;-80
2023/04/22 07:59:11;;;;;;;16.58;8.48;;;;;;;;;;6380505;22;20018;-77
2023/04/22 08:01:56;;;;;;;11.68;6.65;;;;;;;;;;6380797;22;20019;-79
2023/04/22 08:04:41;;;;;;;18.95;9.48;;;;;;;;;;6381202;22;20015;-78
2023/04/22 08:07:27;;;;;;;20.33;8.30;;;;;;;;;;6380890;22;20014;-79
2023/04/22 08:10:12;;;;;;;15.52;7.47;;;;;;;;;;6380822;22;20022;-78
2023/04/22 08:12:58;;;;;;;15.05;7.20;;;;;;;;;;6380927;22;20018;-77
2023/04/22 08:15:43;;;;;;;20.70;8.32;;;;;;;;;;6380963;22;20034;-80
2023/04/22 08:18:29;;;;;;;17.50;8.32;;;;;;;;;;6380560;22;20014;-77
2023/04/22 08:21:14;;;;;;;19.30;6.63;;;;;;;;;;6380700;22;20018;-79
2023/04/22 08:24:00;;;;;;;8.95;4.28;;;;;;;;;;6381088;22;20014;-80
2023/04/22 08:26:46;;;;;;;21.00;7.45;;;;;;;;;;6380498;22;20018;-79
2023/04/22 08:29:32;;;;;;;21.55;6.75;;;;;;;;;;6381147;22;20018;-79
2023/04/22 08:32:18;;;;;;;17.17;6.25;;;;;;;;;;6374055;22;20014;-78
2023/04/22 08:35:04;;;;;;;20.60;6.80;;;;;;;;;;6380574;22;20343;-78
2023/04/22 08:37:49;;;;;;;14.00;6.43;;;;;;;;;;6380727;22;20018;-79
2023/04/22 08:40:35;;;;;;;14.68;5.03;;;;;;;;;;6379903;22;20018;-78
2023/04/22 08:43:21;;;;;;;15.40;5.30;;;;;;;;;;6382471;22;20019;-78
2023/04/22 08:46:06;;;;;;;17.08;5.60;;;;;;;;;;6382747;22;20022;-78
2023/04/22 08:48:53;;;;;;;13.95;3.88;;;;;;;;;;6382501;22;20443;-78
2023/04/22 08:51:38;;;;;;;9.00;3.15;;;;;;;;;;6382940;22;20019;-78
2023/04/22 08:54:24;;;;;;;12.18;3.70;;;;;;;;;;6382532;22;20019;-76
2023/04/22 08:57:10;;;;;;;7.45;3.58;;;;;;;;;;6382782;22;20018;-77
2023/04/22 08:59:57;;;;;;;6.88;2.53;;;;;;;;;;6382746;22;20347;-78
2023/04/22 09:02:44;;;;;;;5.80;2.90;;;;;;;;;;6377429;22;20022;-80
2023/04/22 09:05:35;;;;;;;4.47;1.42;;;;;;;;;;6383227;22;20014;-76
2023/04/22 09:08:20;;;;;;;6.00;2.30;;;;;;;;;;6381959;22;20018;-83
2023/04/22 09:11:06;;;;;;;7.97;3.03;;;;;;;;;;6381953;22;20018;-78
2023/04/22 09:13:53;;;;;;;13.68;3.88;;;;;;;;;;6383141;22;20014;-79
2023/04/22 09:16:46;;;;;;;4.82;2.40;;;;;;;;;;6382760;22;20343;-76
2023/04/22 09:19:30;;;;;;;10.65;3.45;;;;;;;;;;6382422;22;20019;-76
2023/04/22 09:22:15;;;;;;;9.48;3.45;;;;;;;;;;6382400;22;20022;-76
2023/04/22 09:25:03;;;;;;;9.77;3.03;;;;;;;;;;6382351;22;20018;-77
2023/04/22 09:27:54;;;;;;;7.35;2.30;;;;;;;;;;6386335;22;20018;-78
2023/04/22 09:30:39;;;;;;;11.70;2.90;;;;;;;;;;6384490;22;20022;-77
2023/04/22 09:33:25;;;;;;;15.35;4.78;;;;;;;;;;6382193;22;20018;-75
2023/04/22 09:36:10;;;;;;;11.82;2.13;;;;;;;;;;6382446;22;20339;-76
2023/04/22 09:38:58;;;;;;;11.80;3.20;;;;;;;;;;6384112;22;20018;-77
2023/04/22 09:41:43;;;;;;;7.07;2.50;;;;;;;;;;6382559;22;20018;-83
2023/04/22 09:44:29;;;;;;;8.43;3.30;;;;;;;;;;6358957;22;20450;-79
2023/04/22 09:47:14;;;;;;;3.22;2.05;;;;;;;;;;6382115;22;20018;-79
2023/04/22 09:50:03;;;;;;;4.63;2.22;;;;;;;;;;6381964;22;20447;-77
2023/04/22 09:52:56;;;;;;;7.38;2.33;;;;;;;;;;6381840;22;20018;-79
2023/04/22 09:55:53;;;;;;;16.83;3.45;;;;;;;;;;6382098;22;20338;-78
2023/04/22 09:58:41;;;;;;;9.07;3.75;;;;;;;;;;6381762;22;20044;-80
2023/04/22 10:01:34;;;;;;;5.65;2.30;;;;;;;;;;6381874;22;20121;-80
2023/04/22 10:04:21;;;;;;;4.95;2.28;;;;;;;;;;6382090;22;20018;-80
2023/04/22 10:07:07;;;;;;;11.88;3.03;;;;;;;;;;6382051;22;20018;-81
2023/04/22 10:09:52;;;;;;;13.60;3.47;;;;;;;;;;6382826;22;20383;-75
2023/04/22 10:12:38;;;;;;;12.18;3.80;;;;;;;;;;6381797;22;20014;-78
2023/04/22 10:15:24;;;;;;;12.07;3.33;;;;;;;;;;6381549;22;20022;-76
2023/04/22 10:18:18;;;;;;;5.60;2.83;;;;;;;;;;6381587;22;20014;-77
2023/04/22 10:21:04;;;;;;;11.65;3.40;;;;;;;;;;6381648;22;20386;-78
2023/04/22 10:23:50;;;;;;;13.77;3.38;;;;;;;;;;6381642;22;20018;-76
2023/04/22 10:26:48;;;;;;;10.68;3.40;;;;;;;;;;6382127;22;20347;-76
2023/04/22 10:29:41;;;;;;;6.30;3.47;;;;;;;;;;6381997;22;20014;-75
2023/04/22 10:32:27;;;;;;;10.25;3.78;;;;;;;;;;6372777;22;20018;-75
2023/04/22 10:35:13;;;;;;;6.40;3.25;;;;;;;;;;6381892;22;20018;-76
2023/04/22 10:37:59;;;;;;;10.68;3.78;;;;;;;;;;6336509;22;20010;-75
2023/04/22 10:41:14;;;;;;;11.25;3.30;;;;;;;;;;6382121;22;20014;-76
2023/04/22 10:44:05;;;;;;;11.00;3.75;;;;;;;;;;6336525;22;20018;-75
2023/04/22 10:46:53;;;;;;;14.40;3.47;;;;;;;;;;6357231;22;20026;-76
2023/04/22 10:49:38;;;;;;;12.77;3.92;;;;;;;;;;6381631;22;20436;-75
2023/04/22 10:52:28;;;;;;;9.15;3.00;;;;;;;;;;6381736;22;20014;-76
2023/04/22 10:55:14;;;;;;;6.82;3.30;;;;;;;;;;6381446;22;20019;-78
2023/04/22 10:57:59;;;;;;;9.20;3.33;;;;;;;;;;6381433;22;20018;-75
2023/04/22 11:00:46;;;;;;;8.85;3.78;;;;;;;;;;6381708;22;20432;-75
2023/04/22 11:03:32;;;;;;;5.57;3.03;;;;;;;;;;6380804;22;20018;-76
2023/04/22 11:06:21;;;;;;;8.60;3.47;;;;;;;;;;6381635;22;20014;-77
2023/04/22 11:09:11;;;;;;;8.82;3.90;;;;;;;;;;6381343;22;20022;-75
2023/04/22 11:12:36;;;;;;;14.15;3.85;;;;;;;;;;6358178;22;20026;-77
2023/04/22 11:15:21;;;;;;;10.57;3.97;;;;;;;;;;6381939;22;20336;-77
2023/04/22 11:18:10;;;;;;;5.82;3.40;;;;;;;;;;6382189;22;20014;-77
2023/04/22 11:20:55;;;;;;;11.07;4.22;;;;;;;;;;6381895;22;20018;-78
2023/04/22 11:23:49;;;;;;;11.93;4.38;;;;;;;;;;6356754;22;20018;-78
2023/04/22 11:26:36;;;;;;;7.90;3.50;;;;;;;;;;6381141;22;20015;-75
2023/04/22 11:29:21;;;;;;;8.82;3.58;;;;;;;;;;6381537;22;20022;-75
2023/04/22 11:32:10;;;;;;;9.65;3.97;;;;;;;;;;6380924;22;20444;-75
2023/04/22 11:34:57;;;;;;;9.65;3.30;;;;;;;;;;6370223;22;20051;-78
2023/04/22 11:37:55;;;;;;;7.22;3.20;;;;;;;;;;6381211;22;20018;-77
2023/04/22 11:40:44;;;;;;;12.50;3.92;;;;;;;;;;6380977;22;20014;-77
2023/04/22 11:43:30;;;;;;;9.48;3.28;;;;;;;;;;6380891;22;20014;-78
2023/04/22 11:46:15;;;;;;;10.38;3.83;;;;;;;;;;6381023;22;20018;-76
2023/04/22 11:49:14;;;;;;;13.95;3.85;;;;;;;;;;6379888;22;20351;-79
2023/04/22 11:51:59;;;;;;;10.07;3.58;;;;;;;;;;6381139;22;20435;-78
2023/04/22 11:54:45;;;;;;;35.47;3.95;;;;;;;;;;6381436;22;20010;-77
2023/04/22 11:57:35;;;;;;;8.38;3.88;;;;;;;;;;6381348;22;20015;-77
2023/04/22 12:00:22;;;;;;;11.98;3.47;;;;;;;;;;6380901;22;20019;-78
2023/04/22 12:03:15;;;;;;;10.35;3.60;;;;;;;;;;6381064;22;20423;-77
2023/04/22 12:06:02;;;;;;;9.38;3.33;;;;;;;;;;6381299;22;20351;-78
2023/04/22 12:08:48;;;;;;;9.75;3.90;;;;;;;;;;6381399;22;20018;-79
2023/04/22 12:11:34;;;;;;;12.95;4.75;;;;;;;;;;6381429;22;20018;-76
2023/04/22 12:14:19;;;;;;;13.48;6.38;;;;;;;;;;6380936;22;20344;-77
2023/04/22 12:17:09;;;;;;;8.88;3.92;;;;;;;;;;6383074;22;20018;-76
2023/04/22 12:19:55;;;;;;;2.85;2.03;;;;;;;;;;6382930;22;20432;-78
2023/04/22 12:22:41;;;;;;;9.35;3.67;;;;;;;;;;6383009;22;20335;-77
2023/04/22 12:25:28;;;;;;;9.93;3.70;;;;;;;;;;6382623;22;20014;-78
2023/04/22 12:28:15;;;;;;;6.82;3.20;;;;;;;;;;6382811;22;20018;-78
2023/04/22 12:31:00;;;;;;;9.13;3.60;;;;;;;;;;6381552;22;20011;-77
2023/04/22 12:33:46;;;;;;;7.15;3.28;;;;;;;;;;6383280;22;20018;-77
2023/04/22 12:36:31;;;;;;;9.88;3.63;;;;;;;;;;6383224;22;20019;-77
2023/04/22 12:39:18;;;;;;;6.88;3.38;;;;;;;;;;6382722;22;20014;-77
2023/04/22 12:42:05;;;;;;;8.50;3.85;;;;;;;;;;6382779;22;20022;-77
2023/04/22 12:44:50;;;;;;;7.85;3.45;;;;;;;;;;6382915;22;20015;-78
2023/04/22 12:47:36;;;;;;;8.20;4.00;;;;;;;;;;6359018;22;20022;-81
2023/04/22 12:50:25;;;;;;;7.22;3.60;;;;;;;;;;6359174;22;20018;-83
2023/04/22 12:53:16;;;;;;;8.40;3.65;;;;;;;;;;6383424;22;20443;-77
2023/04/22 12:56:04;;;;;;;8.98;3.47;;;;;;;;;;6360070;22;20014;-76
2023/04/22 12:58:50;;;;;;;10.35;4.45;;;;;;;;;;6383096;22;20022;-79
2023/04/22 13:01:35;;;;;;;10.13;4.00;;;;;;;;;;6383769;22;20022;-78
2023/04/22 13:04:22;;;;;;;12.70;4.50;;;;;;;;;;6360209;22;20019;-78
2023/04/22 13:07:08;;;;;;;7.25;3.72;;;;;;;;;;6382939;22;20018;-78
2023/04/22 13:09:53;;;;;;;14.60;3.80;;;;;;;;;;6359547;22;20026;-77
2023/04/22 13:12:40;;;;;;;9.20;3.63;;;;;;;;;;6383032;22;20018;-77
2023/04/22 13:15:25;;;;;;;9.85;3.50;;;;;;;;;;6382787;22;20336;-77
2023/04/22 13:18:11;;;;;;;7.38;3.50;;;;;;;;;;6382594;22;20022;-77
2023/04/22 13:20:56;;;;;;;8.07;3.33;;;;;;;;;;6358781;22;20340;-76
2023/04/22 13:23:42;;;;;;;8.15;3.22;;;;;;;;;;6382190;22;20014;-76
2023/04/22 13:26:28;;;;;;;12.02;3.88;;;;;;;;;;6382383;22;20018;-77
2023/04/22 13:29:13;;;;;;;8.60;3.90;;;;;;;;;;6382563;22;20022;-76
2023/04/22 13:31:59;;;;;;;11.88;3.63;;;;;;;;;;6377116;22;20018;-76
2023/04/22 13:34:45;;;;;;;8.57;3.30;;;;;;;;;;6382428;22;20014;-78
2023/04/22 13:37:30;;;;;;;10.50;3.50;;;;;;;;;;6382543;22;20018;-77
2023/04/22 13:40:15;;;;;;;10.30;3.80;;;;;;;;;;6383139;22;20018;-76
2023/04/22 13:43:01;;;;;;;23.48;7.60;;;;;;;;;;6382382;22;20014;-77
2023/04/22 13:45:47;;;;;;;12.35;5.20;;;;;;;;;;6382168;22;20344;-76
2023/04/22 13:48:32;;;;;;;30.90;14.82;;;;;;;;;;6382361;22;20341;-76
2023/04/22 13:51:18;;;;;;;19.23;6.65;;;;;;;;;;6383014;22;20022;-77
2023/04/22 13:54:04;;;;;;;12.38;4.88;;;;;;;;;;6382284;22;20018;-74
2023/04/22 13:56:50;;;;;;;6.25;3.75;;;;;;;;;;6381987;22;20014;-72
2023/04/22 13:59:36;;;;;;;11.05;4.05;;;;;;;;;;6381796;22;20014;-72
2023/04/22 14:02:21;;;;;;;9.48;4.15;;;;;;;;;;6382011;22;20014;-72
2023/04/22 14:05:08;;;;;;;11.88;4.32;;;;;;;;;;6381872;22;20014;-76
2023/04/22 14:07:54;;;;;;;8.73;3.75;;;;;;;;;;6381895;22;20022;-76
2023/04/22 14:10:39;;;;;;;7.30;3.60;;;;;;;;;;6382347;22;20022;-75
2023/04/22 14:13:28;;;;;;;7.85;3.38;;;;;;;;;;6381897;22;20014;-76
2023/04/22 14:16:16;;;;;;;9.18;4.25;;;;;;;;;;6382263;22;20018;-74
2023/04/22 14:19:02;;;;;;;13.45;4.20;;;;;;;;;;6381798;22;20018;-75
2023/04/22 14:21:47;;;;;;;12.75;3.90;;;;;;;;;;6383108;22;20018;-77
2023/04/22 14:24:33;;;;;;;14.75;3.75;;;;;;;;;;6385704;22;20018;-78
2023/04/22 14:27:18;;;;;;;11.63;3.85;;;;;;;;;;6371824;22;20014;-75
2023/04/22 14:30:05;;;;;;;10.95;3.83;;;;;;;;;;6381941;22;20022;-73
2023/04/22 14:32:49;;;;;;;14.65;4.10;;;;;;;;;;6382175;22;20440;-78
2023/04/22 14:35:36;;;;;;;11.57;4.70;;;;;;;;;;6381975;22;20014;-77
2023/04/22 14:38:22;;;;;;;9.02;3.78;;;;;;;;;;6381408;22;20444;-76
2023/04/22 14:41:08;;;;;;;7.18;3.38;;;;;;;;;;6381586;22;20014;-77
2023/04/22 14:43:53;;;;;;;8.85;3.60;;;;;;;;;;6381603;22;20022;-77
2023/04/22 14:46:40;;;;;;;7.60;3.35;;;;;;;;;;6381945;22;20014;-75
2023/04/22 14:49:25;;;;;;;8.95;3.80;;;;;;;;;;6381948;22;20018;-75
2023/04/22 14:52:11;;;;;;;14.38;3.38;;;;;;;;;;6381877;22;20431;-75
2023/04/22 14:54:56;;;;;;;9.63;3.97;;;;;;;;;;6381637;22;20018;-77
2023/04/22 14:57:42;;;;;;;7.35;3.92;;;;;;;;;;6381558;22;20018;-75
2023/04/22 15:00:28;;;;;;;8.93;3.78;;;;;;;;;;6381333;22;20018;-75
2023/04/22 15:03:14;;;;;;;8.60;4.07;;;;;;;;;;6381482;22;20022;-76
2023/04/22 15:05:58;;;;;;;9.93;4.20;;;;;;;;;;6381415;22;20010;-76
2023/04/22 15:08:44;;;;;;;10.23;4.22;;;;;;;;;;6381480;22;20018;-77
2023/04/22 15:11:30;;;;;;;10.13;4.47;;;;;;;;;;6381313;22;20022;-74
2023/04/22 15:14:16;;;;;;;9.07;3.97;;;;;;;;;;6382115;22;20015;-75
2023/04/22 15:17:02;;;;;;;8.95;4.25;;;;;;;;;;6381139;22;20018;-78
2023/04/22 15:19:49;;;;;;;10.75;4.30;;;;;;;;;;6381301;22;20366;-75
2023/04/22 15:22:34;;;;;;;12.45;4.07;;;;;;;;;;6381190;22;20014;-76
2023/04/22 15:25:20;;;;;;;7.93;4.25;;;;;;;;;;6381921;22;20335;-76
2023/04/22 15:28:06;;;;;;;10.75;3.85;;;;;;;;;;6381791;22;20021;-75
2023/04/22 15:30:51;;;;;;;13.68;4.00;;;;;;;;;;6380720;22;20018;-77
2023/04/22 15:33:37;;;;;;;12.80;3.80;;;;;;;;;;6381305;22;20014;-76
2023/04/22 15:36:22;;;;;;;7.78;3.45;;;;;;;;;;6380931;22;20018;-76
2023/04/22 15:39:09;;;;;;;10.40;4.40;;;;;;;;;;6381049;22;20018;-76
2023/04/22 15:41:55;;;;;;;10.15;4.65;;;;;;;;;;6381014;22;20022;-77
2023/04/22 15:44:41;;;;;;;13.15;4.10;;;;;;;;;;6380048;22;20424;-76
2023/04/22 15:47:28;;;;;;;11.40;4.10;;;;;;;;;;6380752;22;20014;-76
2023/04/22 15:50:15;;;;;;;12.25;3.58;;;;;;;;;;6381529;22;20010;-76
2023/04/22 15:52:59;;;;;;;9.85;3.95;;;;;;;;;;6383434;22;20019;-76
2023/04/22 15:55:45;;;;;;;10.20;5.72;;;;;;;;;;6383319;22;20014;-76
2023/04/22 15:58:31;;;;;;;9.57;3.97;;;;;;;;;;6383367;22;20019;-75
2023/04/22 16:01:18;;;;;;;15.13;4.85;;;;;;;;;;6383556;22;20014;-76
2023/04/22 16:04:04;;;;;;;10.20;4.25;;;;;;;;;;6383364;22;20015;-76
2023/04/22 16:06:50;;;;;;;9.50;4.00;;;;;;;;;;6383519;22;20018;-76
2023/04/22 16:09:35;;;;;;;22.92;4.80;;;;;;;;;;6383238;22;20018;-77
2023/04/22 16:12:21;;;;;;;8.45;4.03;;;;;;;;;;6383650;22;20014;-79
2023/04/22 16:15:08;;;;;;;12.60;4.60;;;;;;;;;;6383402;22;20015;-80
2023/04/22 16:17:53;;;;;;;6.88;3.58;;;;;;;;;;6382249;22;20022;-80
2023/04/22 16:20:38;;;;;;;7.88;3.83;;;;;;;;;;6385486;22;20018;-80
2023/04/22 16:23:24;;;;;;;9.98;4.20;;;;;;;;;;6383322;22;20340;-77
2023/04/22 16:26:10;;;;;;;9.45;4.20;;;;;;;;;;6384057;22;20019;-80
2023/04/22 16:28:55;;;;;;;5.63;3.75;;;;;;;;;;6391079;22;20015;-80